sensor_id;sensor_type;location;lat;lon;timestamp;P1;durP1;ratioP1;P2;durP2;ratioP2
36443;SDS011;24692;45.642;13.806;2022-12-31T00:00:59;27.87;;;21.03;;
36443;SDS011;24692;45.642;13.806;2022-12-31T00:03:25;29.50;;;20.20;;
36443;SDS011;24692;45.642;13.806;2022-12-31T00:05:51;26.60;;;19.77;;
36443;SDS011;24692;45.642;13.806;2022-12-31T00:08:16;31.53;;;19.77;;
36443;SDS011;24692;45.642;13.806;2022-12-31T00:10:42;33.03;;;23.93;;
36443;SDS011;24692;45.642;13.806;2022-12-31T00:13:08;46.33;;;25.33;;
36443;SDS011;24692;45.642;13.806;2022-12-31T00:15:35;47.83;;;29.20;;
36443;SDS011;24692;45.642;13.806;2022-12-31T00:18:03;70.17;;;30.63;;
36443;SDS011;24692;45.642;13.806;2022-12-31T00:20:29;62.23;;;29.67;;
36443;SDS011;24692;45.642;13.806;2022-12-31T00:22:55;133.53;;;32.50;;
36443;SDS011;24692;45.642;13.806;2022-12-31T00:25:21;59.50;;;31.37;;
36443;SDS011;24692;45.642;13.806;2022-12-31T00:27:47;172.83;;;35.20;;
36443;SDS011;24692;45.642;13.806;2022-12-31T00:30:13;95.43;;;31.93;;
36443;SDS011;24692;45.642;13.806;2022-12-31T00:32:38;88.57;;;32.57;;
36443;SDS011;24692;45.642;13.806;2022-12-31T00:35:04;82.27;;;31.87;;
36443;SDS011;24692;45.642;13.806;2022-12-31T00:37:30;63.43;;;31.93;;
36443;SDS011;24692;45.642;13.806;2022-12-31T00:39:56;65.00;;;33.50;;
36443;SDS011;24692;45.642;13.806;2022-12-31T00:42:21;59.20;;;32.23;;
36443;SDS011;24692;45.642;13.806;2022-12-31T00:44:47;72.93;;;34.47;;
36443;SDS011;24692;45.642;13.806;2022-12-31T00:47:13;67.67;;;34.30;;
36443;SDS011;24692;45.642;13.806;2022-12-31T00:49:38;69.23;;;35.17;;
36443;SDS011;24692;45.642;13.806;2022-12-31T00:52:04;71.07;;;37.57;;
36443;SDS011;24692;45.642;13.806;2022-12-31T00:54:30;113.00;;;42.63;;
36443;SDS011;24692;45.642;13.806;2022-12-31T00:56:56;100.87;;;45.23;;
36443;SDS011;24692;45.642;13.806;2022-12-31T00:59:22;103.17;;;45.47;;
36443;SDS011;24692;45.642;13.806;2022-12-31T01:01:47;109.50;;;49.60;;
36443;SDS011;24692;45.642;13.806;2022-12-31T01:04:15;111.10;;;50.50;;
36443;SDS011;24692;45.642;13.806;2022-12-31T01:06:43;122.23;;;51.70;;
36443;SDS011;24692;45.642;13.806;2022-12-31T01:09:10;130.43;;;55.10;;
36443;SDS011;24692;45.642;13.806;2022-12-31T01:11:37;114.20;;;54.37;;
36443;SDS011;24692;45.642;13.806;2022-12-31T01:14:07;118.87;;;56.47;;
36443;SDS011;24692;45.642;13.806;2022-12-31T01:19:08;107.10;;;52.77;;
36443;SDS011;24692;45.642;13.806;2022-12-31T01:21:37;111.10;;;55.03;;
36443;SDS011;24692;45.642;13.806;2022-12-31T01:24:04;114.43;;;55.87;;
36443;SDS011;24692;45.642;13.806;2022-12-31T01:26:30;119.40;;;57.87;;
36443;SDS011;24692;45.642;13.806;2022-12-31T01:28:56;116.53;;;57.70;;
36443;SDS011;24692;45.642;13.806;2022-12-31T01:31:22;114.93;;;59.77;;
36443;SDS011;24692;45.642;13.806;2022-12-31T01:33:49;108.93;;;56.93;;
36443;SDS011;24692;45.642;13.806;2022-12-31T01:36:17;110.07;;;55.67;;
36443;SDS011;24692;45.642;13.806;2022-12-31T01:38:44;101.13;;;51.87;;
36443;SDS011;24692;45.642;13.806;2022-12-31T01:41:14;114.30;;;56.23;;
36443;SDS011;24692;45.642;13.806;2022-12-31T01:51:53;101.90;;;53.30;;
36443;SDS011;24692;45.642;13.806;2022-12-31T01:54:24;116.37;;;56.40;;
36443;SDS011;24692;45.642;13.806;2022-12-31T01:56:52;96.40;;;49.33;;
36443;SDS011;24692;45.642;13.806;2022-12-31T01:59:20;115.27;;;55.90;;
36443;SDS011;24692;45.642;13.806;2022-12-31T02:01:48;114.50;;;56.20;;
36443;SDS011;24692;45.642;13.806;2022-12-31T02:04:17;114.83;;;54.70;;
36443;SDS011;24692;45.642;13.806;2022-12-31T02:06:59;116.57;;;55.60;;
36443;SDS011;24692;45.642;13.806;2022-12-31T02:09:26;115.87;;;54.93;;
36443;SDS011;24692;45.642;13.806;2022-12-31T02:11:53;108.50;;;53.73;;
36443;SDS011;24692;45.642;13.806;2022-12-31T02:14:20;111.90;;;55.90;;
36443;SDS011;24692;45.642;13.806;2022-12-31T02:25:39;113.80;;;56.20;;
36443;SDS011;24692;45.642;13.806;2022-12-31T02:31:05;105.10;;;54.07;;
36443;SDS011;24692;45.642;13.806;2022-12-31T02:36:31;104.27;;;54.33;;
36443;SDS011;24692;45.642;13.806;2022-12-31T02:39:00;102.77;;;53.23;;
36443;SDS011;24692;45.642;13.806;2022-12-31T02:41:28;97.97;;;53.73;;
36443;SDS011;24692;45.642;13.806;2022-12-31T02:57:59;91.37;;;48.97;;
36443;SDS011;24692;45.642;13.806;2022-12-31T03:00:27;95.53;;;49.77;;
36443;SDS011;24692;45.642;13.806;2022-12-31T03:03:14;95.17;;;49.50;;
36443;SDS011;24692;45.642;13.806;2022-12-31T03:05:40;89.63;;;48.07;;
36443;SDS011;24692;45.642;13.806;2022-12-31T03:08:08;85.43;;;47.97;;
36443;SDS011;24692;45.642;13.806;2022-12-31T03:10:34;84.47;;;46.80;;
36443;SDS011;24692;45.642;13.806;2022-12-31T03:13:00;80.60;;;46.43;;
36443;SDS011;24692;45.642;13.806;2022-12-31T03:15:27;86.20;;;47.00;;
36443;SDS011;24692;45.642;13.806;2022-12-31T03:17:57;88.00;;;48.67;;
36443;SDS011;24692;45.642;13.806;2022-12-31T03:20:30;83.33;;;47.37;;
36443;SDS011;24692;45.642;13.806;2022-12-31T03:23:16;83.67;;;47.53;;
36443;SDS011;24692;45.642;13.806;2022-12-31T03:25:50;84.77;;;47.40;;
36443;SDS011;24692;45.642;13.806;2022-12-31T03:28:17;86.17;;;48.13;;
36443;SDS011;24692;45.642;13.806;2022-12-31T03:30:45;88.23;;;47.57;;
36443;SDS011;24692;45.642;13.806;2022-12-31T03:33:13;88.73;;;48.83;;
36443;SDS011;24692;45.642;13.806;2022-12-31T03:35:40;89.37;;;49.07;;
36443;SDS011;24692;45.642;13.806;2022-12-31T03:38:07;84.80;;;48.07;;
36443;SDS011;24692;45.642;13.806;2022-12-31T03:40:36;85.87;;;47.30;;
36443;SDS011;24692;45.642;13.806;2022-12-31T03:43:07;88.37;;;47.33;;
36443;SDS011;24692;45.642;13.806;2022-12-31T03:45:33;91.63;;;50.03;;
36443;SDS011;24692;45.642;13.806;2022-12-31T03:48:00;89.57;;;47.27;;
36443;SDS011;24692;45.642;13.806;2022-12-31T03:50:26;84.10;;;45.57;;
36443;SDS011;24692;45.642;13.806;2022-12-31T03:52:52;84.97;;;45.13;;
36443;SDS011;24692;45.642;13.806;2022-12-31T03:55:18;87.57;;;46.70;;
36443;SDS011;24692;45.642;13.806;2022-12-31T03:57:44;78.30;;;43.90;;
36443;SDS011;24692;45.642;13.806;2022-12-31T04:00:11;83.87;;;46.03;;
36443;SDS011;24692;45.642;13.806;2022-12-31T04:02:39;85.50;;;46.30;;
36443;SDS011;24692;45.642;13.806;2022-12-31T04:05:05;79.67;;;42.03;;
36443;SDS011;24692;45.642;13.806;2022-12-31T04:07:32;78.73;;;41.20;;
36443;SDS011;24692;45.642;13.806;2022-12-31T04:09:57;73.50;;;40.90;;
36443;SDS011;24692;45.642;13.806;2022-12-31T04:12:23;76.27;;;42.37;;
36443;SDS011;24692;45.642;13.806;2022-12-31T04:14:49;74.50;;;40.97;;
36443;SDS011;24692;45.642;13.806;2022-12-31T04:17:15;77.37;;;42.63;;
36443;SDS011;24692;45.642;13.806;2022-12-31T04:19:41;84.33;;;44.03;;
36443;SDS011;24692;45.642;13.806;2022-12-31T04:22:06;77.20;;;42.97;;
36443;SDS011;24692;45.642;13.806;2022-12-31T04:24:32;84.97;;;43.03;;
36443;SDS011;24692;45.642;13.806;2022-12-31T04:26:58;86.33;;;43.03;;
36443;SDS011;24692;45.642;13.806;2022-12-31T04:29:24;88.27;;;45.70;;
36443;SDS011;24692;45.642;13.806;2022-12-31T04:31:49;102.60;;;47.13;;
36443;SDS011;24692;45.642;13.806;2022-12-31T04:34:15;102.53;;;46.63;;
36443;SDS011;24692;45.642;13.806;2022-12-31T04:36:41;104.30;;;45.57;;
36443;SDS011;24692;45.642;13.806;2022-12-31T04:39:06;121.03;;;47.70;;
36443;SDS011;24692;45.642;13.806;2022-12-31T04:41:32;121.60;;;46.40;;
36443;SDS011;24692;45.642;13.806;2022-12-31T04:43:58;119.07;;;46.77;;
36443;SDS011;24692;45.642;13.806;2022-12-31T04:46:25;119.07;;;46.63;;
36443;SDS011;24692;45.642;13.806;2022-12-31T04:48:55;121.07;;;48.60;;
36443;SDS011;24692;45.642;13.806;2022-12-31T04:51:22;126.20;;;49.03;;
36443;SDS011;24692;45.642;13.806;2022-12-31T04:53:48;110.60;;;47.33;;
36443;SDS011;24692;45.642;13.806;2022-12-31T04:56:14;125.37;;;50.87;;
36443;SDS011;24692;45.642;13.806;2022-12-31T04:58:41;124.47;;;49.10;;
36443;SDS011;24692;45.642;13.806;2022-12-31T05:01:07;119.90;;;49.53;;
36443;SDS011;24692;45.642;13.806;2022-12-31T05:03:33;125.90;;;48.30;;
36443;SDS011;24692;45.642;13.806;2022-12-31T05:06:00;108.97;;;47.20;;
36443;SDS011;24692;45.642;13.806;2022-12-31T05:08:26;121.37;;;48.27;;
36443;SDS011;24692;45.642;13.806;2022-12-31T05:10:52;108.60;;;47.10;;
36443;SDS011;24692;45.642;13.806;2022-12-31T05:13:18;129.93;;;48.37;;
36443;SDS011;24692;45.642;13.806;2022-12-31T05:15:44;134.77;;;50.23;;
36443;SDS011;24692;45.642;13.806;2022-12-31T05:18:10;138.97;;;51.70;;
36443;SDS011;24692;45.642;13.806;2022-12-31T05:20:36;148.80;;;54.47;;
36443;SDS011;24692;45.642;13.806;2022-12-31T05:23:02;155.07;;;53.97;;
36443;SDS011;24692;45.642;13.806;2022-12-31T05:25:28;177.63;;;57.63;;
36443;SDS011;24692;45.642;13.806;2022-12-31T05:27:53;180.77;;;57.50;;
36443;SDS011;24692;45.642;13.806;2022-12-31T05:30:20;193.57;;;57.20;;
36443;SDS011;24692;45.642;13.806;2022-12-31T05:32:45;208.07;;;58.03;;
36443;SDS011;24692;45.642;13.806;2022-12-31T05:35:11;207.73;;;55.87;;
36443;SDS011;24692;45.642;13.806;2022-12-31T05:37:37;173.47;;;53.00;;
36443;SDS011;24692;45.642;13.806;2022-12-31T05:40:03;173.03;;;54.17;;
36443;SDS011;24692;45.642;13.806;2022-12-31T05:42:29;160.50;;;52.70;;
36443;SDS011;24692;45.642;13.806;2022-12-31T05:44:54;156.60;;;50.30;;
36443;SDS011;24692;45.642;13.806;2022-12-31T05:47:20;161.10;;;53.43;;
36443;SDS011;24692;45.642;13.806;2022-12-31T05:49:46;181.60;;;51.53;;
36443;SDS011;24692;45.642;13.806;2022-12-31T05:52:12;183.90;;;54.77;;
36443;SDS011;24692;45.642;13.806;2022-12-31T05:54:37;174.87;;;53.63;;
36443;SDS011;24692;45.642;13.806;2022-12-31T05:57:03;174.10;;;52.80;;
36443;SDS011;24692;45.642;13.806;2022-12-31T05:59:29;163.73;;;51.57;;
36443;SDS011;24692;45.642;13.806;2022-12-31T06:01:55;180.67;;;54.07;;
36443;SDS011;24692;45.642;13.806;2022-12-31T06:04:21;180.10;;;53.63;;
36443;SDS011;24692;45.642;13.806;2022-12-31T06:06:48;173.43;;;51.27;;
36443;SDS011;24692;45.642;13.806;2022-12-31T06:09:14;180.97;;;52.77;;
36443;SDS011;24692;45.642;13.806;2022-12-31T06:11:40;172.27;;;50.80;;
36443;SDS011;24692;45.642;13.806;2022-12-31T06:14:06;201.00;;;54.00;;
36443;SDS011;24692;45.642;13.806;2022-12-31T06:16:32;173.00;;;52.60;;
36443;SDS011;24692;45.642;13.806;2022-12-31T06:18:58;180.23;;;52.33;;
36443;SDS011;24692;45.642;13.806;2022-12-31T06:21:24;190.47;;;53.53;;
36443;SDS011;24692;45.642;13.806;2022-12-31T06:23:49;172.13;;;50.90;;
36443;SDS011;24692;45.642;13.806;2022-12-31T06:26:15;168.57;;;49.77;;
36443;SDS011;24692;45.642;13.806;2022-12-31T06:28:41;152.63;;;47.60;;
36443;SDS011;24692;45.642;13.806;2022-12-31T06:31:07;171.47;;;49.40;;
36443;SDS011;24692;45.642;13.806;2022-12-31T06:33:35;157.97;;;48.70;;
36443;SDS011;24692;45.642;13.806;2022-12-31T06:36:02;165.20;;;50.83;;
36443;SDS011;24692;45.642;13.806;2022-12-31T06:38:30;152.93;;;49.10;;
36443;SDS011;24692;45.642;13.806;2022-12-31T06:40:57;151.33;;;48.20;;
36443;SDS011;24692;45.642;13.806;2022-12-31T06:43:22;155.10;;;48.20;;
36443;SDS011;24692;45.642;13.806;2022-12-31T06:45:48;152.00;;;47.83;;
36443;SDS011;24692;45.642;13.806;2022-12-31T06:48:14;153.77;;;49.37;;
36443;SDS011;24692;45.642;13.806;2022-12-31T06:50:39;159.93;;;49.90;;
36443;SDS011;24692;45.642;13.806;2022-12-31T06:53:05;148.10;;;48.67;;
36443;SDS011;24692;45.642;13.806;2022-12-31T06:55:31;149.40;;;48.07;;
36443;SDS011;24692;45.642;13.806;2022-12-31T06:57:57;138.53;;;46.07;;
36443;SDS011;24692;45.642;13.806;2022-12-31T07:00:23;149.03;;;48.97;;
36443;SDS011;24692;45.642;13.806;2022-12-31T07:18:28;124.20;;;47.67;;
36443;SDS011;24692;45.642;13.806;2022-12-31T07:21:11;117.00;;;44.83;;
36443;SDS011;24692;45.642;13.806;2022-12-31T07:23:42;130.17;;;48.13;;
36443;SDS011;24692;45.642;13.806;2022-12-31T07:31:15;116.13;;;44.57;;
36443;SDS011;24692;45.642;13.806;2022-12-31T07:39:55;108.20;;;43.57;;
36443;SDS011;24692;45.642;13.806;2022-12-31T07:45:26;118.73;;;45.33;;
36443;SDS011;24692;45.642;13.806;2022-12-31T07:47:49;120.80;;;46.83;;
36443;SDS011;24692;45.642;13.806;2022-12-31T07:50:16;119.50;;;45.37;;
36443;SDS011;24692;45.642;13.806;2022-12-31T07:52:44;114.53;;;44.33;;
36443;SDS011;24692;45.642;13.806;2022-12-31T07:55:10;124.47;;;46.50;;
36443;SDS011;24692;45.642;13.806;2022-12-31T07:57:48;121.73;;;46.57;;
36443;SDS011;24692;45.642;13.806;2022-12-31T08:00:21;111.43;;;46.43;;
36443;SDS011;24692;45.642;13.806;2022-12-31T08:03:01;112.97;;;43.33;;
36443;SDS011;24692;45.642;13.806;2022-12-31T08:08:35;98.03;;;41.97;;
36443;SDS011;24692;45.642;13.806;2022-12-31T08:11:24;118.40;;;45.00;;
36443;SDS011;24692;45.642;13.806;2022-12-31T08:14:01;109.27;;;43.90;;
36443;SDS011;24692;45.642;13.806;2022-12-31T08:16:27;113.27;;;44.83;;
36443;SDS011;24692;45.642;13.806;2022-12-31T08:18:54;108.57;;;44.87;;
36443;SDS011;24692;45.642;13.806;2022-12-31T08:24:23;111.60;;;46.27;;
36443;SDS011;24692;45.642;13.806;2022-12-31T08:27:14;114.60;;;46.93;;
36443;SDS011;24692;45.642;13.806;2022-12-31T08:35:13;131.87;;;51.03;;
36443;SDS011;24692;45.642;13.806;2022-12-31T08:40:50;135.10;;;50.63;;
36443;SDS011;24692;45.642;13.806;2022-12-31T08:43:49;123.77;;;49.70;;
36443;SDS011;24692;45.642;13.806;2022-12-31T08:46:27;141.93;;;54.90;;
36443;SDS011;24692;45.642;13.806;2022-12-31T08:48:57;147.50;;;52.90;;
36443;SDS011;24692;45.642;13.806;2022-12-31T08:51:24;143.17;;;54.50;;
36443;SDS011;24692;45.642;13.806;2022-12-31T08:53:50;145.67;;;54.30;;
36443;SDS011;24692;45.642;13.806;2022-12-31T09:01:23;150.50;;;54.97;;
36443;SDS011;24692;45.642;13.806;2022-12-31T09:06:28;138.00;;;55.00;;
36443;SDS011;24692;45.642;13.806;2022-12-31T09:11:53;129.60;;;51.27;;
36443;SDS011;24692;45.642;13.806;2022-12-31T09:19:49;134.43;;;49.97;;
36443;SDS011;24692;45.642;13.806;2022-12-31T09:22:15;128.10;;;49.17;;
36443;SDS011;24692;45.642;13.806;2022-12-31T09:24:40;127.90;;;49.53;;
36443;SDS011;24692;45.642;13.806;2022-12-31T09:29:43;137.53;;;49.83;;
36443;SDS011;24692;45.642;13.806;2022-12-31T09:34:56;136.37;;;49.03;;
36443;SDS011;24692;45.642;13.806;2022-12-31T09:57:15;144.40;;;47.80;;
36443;SDS011;24692;45.642;13.806;2022-12-31T10:11:27;132.63;;;47.10;;
36443;SDS011;24692;45.642;13.806;2022-12-31T10:25:31;120.83;;;44.63;;
36443;SDS011;24692;45.642;13.806;2022-12-31T10:30:34;118.33;;;45.80;;
36443;SDS011;24692;45.642;13.806;2022-12-31T10:38:44;117.53;;;46.47;;
36443;SDS011;24692;45.642;13.806;2022-12-31T10:55:19;136.77;;;50.20;;
36443;SDS011;24692;45.642;13.806;2022-12-31T11:28:34;139.80;;;55.03;;
36443;SDS011;24692;45.642;13.806;2022-12-31T11:36:43;144.03;;;57.57;;
36443;SDS011;24692;45.642;13.806;2022-12-31T11:50:27;167.23;;;59.70;;
36443;SDS011;24692;45.642;13.806;2022-12-31T11:58:24;150.37;;;59.67;;
36443;SDS011;24692;45.642;13.806;2022-12-31T12:03:21;152.43;;;56.70;;
36443;SDS011;24692;45.642;13.806;2022-12-31T12:05:48;136.43;;;52.60;;
36443;SDS011;24692;45.642;13.806;2022-12-31T12:08:14;155.13;;;57.37;;
36443;SDS011;24692;45.642;13.806;2022-12-31T12:10:44;138.17;;;52.13;;
36443;SDS011;24692;45.642;13.806;2022-12-31T12:15:44;127.37;;;51.70;;
36443;SDS011;24692;45.642;13.806;2022-12-31T12:18:17;117.03;;;50.77;;
36443;SDS011;24692;45.642;13.806;2022-12-31T12:24:02;121.93;;;49.40;;
36443;SDS011;24692;45.642;13.806;2022-12-31T12:26:34;114.40;;;48.97;;
36443;SDS011;24692;45.642;13.806;2022-12-31T12:29:09;119.73;;;49.93;;
36443;SDS011;24692;45.642;13.806;2022-12-31T12:31:36;115.03;;;46.93;;
36443;SDS011;24692;45.642;13.806;2022-12-31T12:34:02;116.50;;;47.07;;
36443;SDS011;24692;45.642;13.806;2022-12-31T12:36:28;113.23;;;45.80;;
36443;SDS011;24692;45.642;13.806;2022-12-31T12:38:59;103.97;;;43.17;;
36443;SDS011;24692;45.642;13.806;2022-12-31T12:41:29;110.83;;;45.63;;
36443;SDS011;24692;45.642;13.806;2022-12-31T12:44:05;106.90;;;44.07;;
36443;SDS011;24692;45.642;13.806;2022-12-31T12:46:38;103.77;;;41.23;;
36443;SDS011;24692;45.642;13.806;2022-12-31T12:49:30;108.00;;;42.77;;
36443;SDS011;24692;45.642;13.806;2022-12-31T13:00:24;95.07;;;37.43;;
36443;SDS011;24692;45.642;13.806;2022-12-31T13:05:46;95.07;;;39.07;;
36443;SDS011;24692;45.642;13.806;2022-12-31T13:17:48;95.00;;;40.67;;
36443;SDS011;24692;45.642;13.806;2022-12-31T13:19:58;99.70;;;40.53;;
36443;SDS011;24692;45.642;13.806;2022-12-31T13:22:39;100.83;;;42.20;;
36443;SDS011;24692;45.642;13.806;2022-12-31T13:27:56;99.73;;;42.50;;
36443;SDS011;24692;45.642;13.806;2022-12-31T13:32:59;101.73;;;43.37;;
36443;SDS011;24692;45.642;13.806;2022-12-31T13:35:32;91.83;;;40.90;;
36443;SDS011;24692;45.642;13.806;2022-12-31T13:38:02;104.00;;;42.07;;
36443;SDS011;24692;45.642;13.806;2022-12-31T13:40:48;94.20;;;40.20;;
36443;SDS011;24692;45.642;13.806;2022-12-31T13:43:33;94.10;;;41.20;;
36443;SDS011;24692;45.642;13.806;2022-12-31T13:46:08;100.43;;;41.23;;
36443;SDS011;24692;45.642;13.806;2022-12-31T13:49:03;100.53;;;42.87;;
36443;SDS011;24692;45.642;13.806;2022-12-31T13:56:50;103.70;;;41.43;;
36443;SDS011;24692;45.642;13.806;2022-12-31T13:59:21;106.57;;;44.40;;
36443;SDS011;24692;45.642;13.806;2022-12-31T14:01:54;104.50;;;42.73;;
36443;SDS011;24692;45.642;13.806;2022-12-31T14:04:47;106.67;;;43.27;;
36443;SDS011;24692;45.642;13.806;2022-12-31T14:07:21;96.93;;;41.30;;
36443;SDS011;24692;45.642;13.806;2022-12-31T14:09:52;95.77;;;40.83;;
36443;SDS011;24692;45.642;13.806;2022-12-31T14:15:02;99.17;;;41.03;;
36443;SDS011;24692;45.642;13.806;2022-12-31T14:25:46;108.57;;;43.10;;
36443;SDS011;24692;45.642;13.806;2022-12-31T14:28:24;104.17;;;42.67;;
36443;SDS011;24692;45.642;13.806;2022-12-31T14:30:52;104.53;;;43.13;;
36443;SDS011;24692;45.642;13.806;2022-12-31T14:38:43;109.10;;;46.00;;
36443;SDS011;24692;45.642;13.806;2022-12-31T14:47:10;103.20;;;45.07;;
36443;SDS011;24692;45.642;13.806;2022-12-31T14:52:35;103.87;;;44.73;;
36443;SDS011;24692;45.642;13.806;2022-12-31T14:55:20;108.47;;;45.53;;
36443;SDS011;24692;45.642;13.806;2022-12-31T14:57:50;109.07;;;48.43;;
36443;SDS011;24692;45.642;13.806;2022-12-31T15:00:27;119.67;;;50.63;;
36443;SDS011;24692;45.642;13.806;2022-12-31T15:03:04;122.20;;;53.97;;
36443;SDS011;24692;45.642;13.806;2022-12-31T15:05:35;131.93;;;58.83;;
36443;SDS011;24692;45.642;13.806;2022-12-31T15:11:42;136.27;;;63.80;;
36443;SDS011;24692;45.642;13.806;2022-12-31T15:22:43;136.97;;;60.97;;
36443;SDS011;24692;45.642;13.806;2022-12-31T15:27:58;127.57;;;59.53;;
36443;SDS011;24692;45.642;13.806;2022-12-31T15:33:04;132.87;;;61.00;;
36443;SDS011;24692;45.642;13.806;2022-12-31T15:35:44;143.83;;;61.07;;
36443;SDS011;24692;45.642;13.806;2022-12-31T15:40:49;138.90;;;64.80;;
36443;SDS011;24692;45.642;13.806;2022-12-31T15:43:24;140.63;;;65.13;;
36443;SDS011;24692;45.642;13.806;2022-12-31T15:45:57;137.20;;;62.93;;
36443;SDS011;24692;45.642;13.806;2022-12-31T15:51:10;145.30;;;68.47;;
36443;SDS011;24692;45.642;13.806;2022-12-31T15:53:56;136.07;;;63.87;;
36443;SDS011;24692;45.642;13.806;2022-12-31T15:56:36;123.67;;;57.57;;
36443;SDS011;24692;45.642;13.806;2022-12-31T15:59:05;125.83;;;56.60;;
36443;SDS011;24692;45.642;13.806;2022-12-31T16:01:36;119.03;;;53.63;;
36443;SDS011;24692;45.642;13.806;2022-12-31T16:04:11;127.67;;;53.60;;
36443;SDS011;24692;45.642;13.806;2022-12-31T16:06:38;124.60;;;55.33;;
36443;SDS011;24692;45.642;13.806;2022-12-31T16:09:07;116.37;;;53.07;;
36443;SDS011;24692;45.642;13.806;2022-12-31T16:11:43;120.93;;;55.10;;
36443;SDS011;24692;45.642;13.806;2022-12-31T16:14:21;113.50;;;54.30;;
36443;SDS011;24692;45.642;13.806;2022-12-31T16:16:59;122.90;;;54.87;;
36443;SDS011;24692;45.642;13.806;2022-12-31T16:21:56;129.47;;;59.37;;
36443;SDS011;24692;45.642;13.806;2022-12-31T16:24:31;137.97;;;61.37;;
36443;SDS011;24692;45.642;13.806;2022-12-31T16:26:58;149.87;;;66.47;;
36443;SDS011;24692;45.642;13.806;2022-12-31T16:29:45;146.53;;;62.13;;
36443;SDS011;24692;45.642;13.806;2022-12-31T16:32:15;135.00;;;57.63;;
36443;SDS011;24692;45.642;13.806;2022-12-31T16:34:42;143.63;;;59.83;;
36443;SDS011;24692;45.642;13.806;2022-12-31T16:37:15;143.03;;;61.30;;
36443;SDS011;24692;45.642;13.806;2022-12-31T16:42:20;131.97;;;57.73;;
36443;SDS011;24692;45.642;13.806;2022-12-31T16:44:53;134.33;;;56.77;;
36443;SDS011;24692;45.642;13.806;2022-12-31T16:47:28;142.20;;;59.23;;
36443;SDS011;24692;45.642;13.806;2022-12-31T16:50:00;139.83;;;58.93;;
36443;SDS011;24692;45.642;13.806;2022-12-31T16:52:31;140.77;;;57.57;;
36443;SDS011;24692;45.642;13.806;2022-12-31T16:55:00;133.07;;;56.80;;
36443;SDS011;24692;45.642;13.806;2022-12-31T16:57:42;130.73;;;55.87;;
36443;SDS011;24692;45.642;13.806;2022-12-31T17:00:15;131.00;;;56.90;;
36443;SDS011;24692;45.642;13.806;2022-12-31T17:02:44;136.50;;;57.83;;
36443;SDS011;24692;45.642;13.806;2022-12-31T17:05:18;136.00;;;58.43;;
36443;SDS011;24692;45.642;13.806;2022-12-31T17:07:46;143.60;;;61.60;;
36443;SDS011;24692;45.642;13.806;2022-12-31T17:10:24;145.27;;;63.30;;
36443;SDS011;24692;45.642;13.806;2022-12-31T17:12:57;151.33;;;64.00;;
36443;SDS011;24692;45.642;13.806;2022-12-31T17:15:25;139.63;;;59.57;;
36443;SDS011;24692;45.642;13.806;2022-12-31T17:17:55;138.87;;;58.77;;
36443;SDS011;24692;45.642;13.806;2022-12-31T17:20:25;137.90;;;59.03;;
36443;SDS011;24692;45.642;13.806;2022-12-31T17:23:03;130.90;;;55.47;;
36443;SDS011;24692;45.642;13.806;2022-12-31T17:25:32;126.73;;;55.30;;
36443;SDS011;24692;45.642;13.806;2022-12-31T17:35:39;136.20;;;54.70;;
36443;SDS011;24692;45.642;13.806;2022-12-31T17:41:31;140.37;;;54.90;;
36443;SDS011;24692;45.642;13.806;2022-12-31T17:43:40;141.27;;;56.17;;
36443;SDS011;24692;45.642;13.806;2022-12-31T17:46:13;130.10;;;55.33;;
36443;SDS011;24692;45.642;13.806;2022-12-31T17:48:41;133.60;;;54.83;;
36443;SDS011;24692;45.642;13.806;2022-12-31T17:51:09;134.93;;;57.03;;
36443;SDS011;24692;45.642;13.806;2022-12-31T17:53:35;179.40;;;74.07;;
36443;SDS011;24692;45.642;13.806;2022-12-31T17:56:04;133.77;;;57.20;;
36443;SDS011;24692;45.642;13.806;2022-12-31T17:58:33;148.80;;;61.50;;
36443;SDS011;24692;45.642;13.806;2022-12-31T18:01:12;139.53;;;59.77;;
36443;SDS011;24692;45.642;13.806;2022-12-31T18:03:40;141.83;;;58.90;;
36443;SDS011;24692;45.642;13.806;2022-12-31T18:06:07;161.90;;;66.87;;
36443;SDS011;24692;45.642;13.806;2022-12-31T18:08:33;141.23;;;58.80;;
36443;SDS011;24692;45.642;13.806;2022-12-31T18:10:59;130.40;;;53.87;;
36443;SDS011;24692;45.642;13.806;2022-12-31T18:13:25;128.57;;;55.00;;
36443;SDS011;24692;45.642;13.806;2022-12-31T18:15:51;134.73;;;53.87;;
36443;SDS011;24692;45.642;13.806;2022-12-31T18:18:23;128.93;;;55.27;;
36443;SDS011;24692;45.642;13.806;2022-12-31T18:20:56;127.23;;;54.30;;
36443;SDS011;24692;45.642;13.806;2022-12-31T18:23:27;119.93;;;52.50;;
36443;SDS011;24692;45.642;13.806;2022-12-31T18:25:55;135.50;;;55.20;;
36443;SDS011;24692;45.642;13.806;2022-12-31T18:28:21;133.73;;;56.53;;
36443;SDS011;24692;45.642;13.806;2022-12-31T18:30:47;126.20;;;53.77;;
36443;SDS011;24692;45.642;13.806;2022-12-31T18:33:13;118.10;;;52.87;;
36443;SDS011;24692;45.642;13.806;2022-12-31T18:35:46;124.03;;;53.20;;
36443;SDS011;24692;45.642;13.806;2022-12-31T18:38:14;119.80;;;52.00;;
36443;SDS011;24692;45.642;13.806;2022-12-31T18:40:41;120.47;;;51.13;;
36443;SDS011;24692;45.642;13.806;2022-12-31T18:43:13;119.70;;;50.77;;
36443;SDS011;24692;45.642;13.806;2022-12-31T18:45:40;118.77;;;50.70;;
36443;SDS011;24692;45.642;13.806;2022-12-31T18:48:06;119.40;;;52.40;;
36443;SDS011;24692;45.642;13.806;2022-12-31T18:50:32;120.13;;;52.33;;
36443;SDS011;24692;45.642;13.806;2022-12-31T18:52:58;128.93;;;52.60;;
36443;SDS011;24692;45.642;13.806;2022-12-31T18:55:25;123.10;;;52.00;;
36443;SDS011;24692;45.642;13.806;2022-12-31T18:58:02;122.10;;;52.00;;
36443;SDS011;24692;45.642;13.806;2022-12-31T19:00:28;124.33;;;53.70;;
36443;SDS011;24692;45.642;13.806;2022-12-31T19:02:54;121.20;;;51.90;;
36443;SDS011;24692;45.642;13.806;2022-12-31T19:07:46;121.93;;;53.67;;
36443;SDS011;24692;45.642;13.806;2022-12-31T19:10:12;126.40;;;54.37;;
36443;SDS011;24692;45.642;13.806;2022-12-31T19:12:39;118.67;;;52.20;;
36443;SDS011;24692;45.642;13.806;2022-12-31T19:15:38;129.53;;;54.23;;
36443;SDS011;24692;45.642;13.806;2022-12-31T19:17:59;136.77;;;55.03;;
36443;SDS011;24692;45.642;13.806;2022-12-31T19:20:26;134.07;;;53.80;;
36443;SDS011;24692;45.642;13.806;2022-12-31T19:22:52;136.13;;;54.80;;
36443;SDS011;24692;45.642;13.806;2022-12-31T19:25:19;151.63;;;57.13;;
36443;SDS011;24692;45.642;13.806;2022-12-31T19:27:46;149.50;;;56.17;;
36443;SDS011;24692;45.642;13.806;2022-12-31T19:30:14;154.70;;;56.93;;
36443;SDS011;24692;45.642;13.806;2022-12-31T19:32:42;158.60;;;56.30;;
36443;SDS011;24692;45.642;13.806;2022-12-31T19:35:10;176.20;;;58.33;;
36443;SDS011;24692;45.642;13.806;2022-12-31T19:37:37;162.27;;;56.40;;
36443;SDS011;24692;45.642;13.806;2022-12-31T19:40:03;154.03;;;56.67;;